Tiempo atmosférico en la estación meteorológica de Becerreá, Lugo (1080 m.)



Fecha
DESCASC
Temp. máxima en grados centígrados (hora)
DESCASC
Temp. mínima en grados centígrados (hora)
DESCASC
Temp. media en grados centígrados
DESCASC
Racha de viento máxima en m/sg (hora)
DESCASC
Velocidad máxima media en intervalos de 10 minutos(hora)
DESCASC
Precipitaciones diarias en mm
DESCASC
Precipitaciones de 00:00 a 06:00 en mm
DESCASC
Precipitaciones de 06:00 a 12:00 en mm
DESCASC
Precipitaciones de 12:00 a 18:00 en mm
DESCASC
Precipitaciones de 18:00 a 24:00 en mm
DESCASC
22-04-2019 14.3 (14:50) 5.3 (23:59) 9.8 8.61 (18:00) 3.89 (18:10) 0.6 0 0 0 0.6
21-04-2019 16.7 (14:50) 6.5 (07:50) 11.6 8.61 (12:50) 3.61 (13:00) 0 0 0 0 0
20-04-2019 18.6 (14:30) 7.3 (05:10) 13 12.5 (18:50) 4.72 (19:00) 0 0 0 0 0
19-04-2019 14.4 (16:50) 5.8 (02:40) 10.1 10 (09:00) 3.33 (08:10) 0.4 0 0.4 0 0
18-04-2019 13.1 (13:50) 5 (00:00) 9.1 8.61 (00:20) 5 (00:30) 3 3 0 0 0
17-04-2019 13.3 (14:20) 5.8 (00:00) 9.6 14.72 (12:50) 6.11 (05:50) 2.6 0 0 0 2.6
16-04-2019 15.2 (17:30) 3.3 (00:00) 9.2 7.22 (15:30) 3.61 (08:30) 0 0 0 0 0
15-04-2019 12.5 (00:30) 4.4 (00:00) 8.5 12.22 (12:40) 5 (12:40) 15.8 0 7 8.8 0
14-04-2019 15.1 (17:10) 9.3 (00:00) 12.2 7.78 (13:00) 3.89 (19:30) 0 0 0 0 0
13-04-2019 15.2 (14:20) 6.8 (00:00) 11 7.5 (19:40) 3.89 (20:10) 0 0 0 0 0
12-04-2019 13.7 (18:20) 2.3 (00:00) 8 6.39 (14:10) 3.61 (22:50) 0 0 0 0 0
11-04-2019 9.2 (14:00) 1.5 (00:00) 5.3 4.72 (17:20) 2.22 (22:10) 0 0 0 0 0
10-04-2019 7.1 (17:00) 2.4 (00:00) 4.8 12.78 (04:30) 6.39 (09:30) 11 4.2 5.4 1.4 0
09-04-2019 5.4 (16:40) 0.7 (00:00) 3.1 13.89 (03:30) 6.11 (03:30) 18.2 1.4 4.6 6.2 6
08-04-2019 8 (17:50) 2.2 (00:00) 5.1 11.67 (01:00) 5 (22:40) 5.4 2.6 0 1.4 1.4
07-04-2019 5.5 (13:20) -0.1 (00:00) 2.7 11.67 (19:30) 5.83 (20:00) 15.8 0.4 3.2 3 9.2
06-04-2019 2.2 (19:20) -0.5 (-00:0) 0.9 11.39 (09:10) 5.56 (06:20) 16.8 0.6 2.4 10 3.8
05-04-2019 3.1 (14:50) -1.3 (-00:0) 0.9 11.11 (16:00) 4.17 (10:10) 8.6 0.6 2.4 3.6 2
04-04-2019 3 (13:10) -1.4 (-00:0) 0.8 12.5 (19:40) 6.39 (18:40) 5.6 0 2.2 1 2.4
03-04-2019 3.8 (17:30) -1.1 (-00:0) 1.3 10.56 (10:00) 5 (19:50) 3.6 0 1 2.2 0.4
02-04-2019 10.1 (16:20) 2.2 (00:00) 6.2 7.22 (17:30) 3.61 (23:50) 0 0 0 0 0
01-04-2019 15.2 (16:10) 6.4 (00:00) 10.8 7.5 (05:50) 4.44 (06:30) 0 0 0 0 0
31-03-2019 16.5 (16:00) 7.7 (00:00) 12.1 9.72 (19:40) 4.44 (08:20) 0 0 0 0 0
30-03-2019 14.2 (14:50) 7.3 (00:00) 10.8 5.83 (16:50) 2.5 (12:30) 0 0 0 0 0
29-03-2019 15.8 (17:30) 7.8 (00:00) 11.8 8.33 (07:10) 4.72 (07:30) 0 0 0 0 0
28-03-2019 17.2 (15:40) 4.5 (00:00) 10.9 7.78 (23:59) 3.89 (23:00) 0 0 0 0 0
27-03-2019 16.7 (14:30) 2.4 (00:00) 9.6 9.72 (02:20) 5 (02:20) 0 0 0 0 0
26-03-2019 15.6 (15:20) 0.2 (00:00) 7.9 8.89 (04:30) 3.61 (08:40) 0 0 0 0 0
25-03-2019 14 (15:30) 2.7 (00:00) 8.4 8.33 (19:30) 3.06 (17:50) 0 0 0 0 0

Gráficas

Temp. máximas Temp. mínimas Temp. medias Precipitaciones Rachas de viento máximas Velocidades máximas media en intervalos de 10 minutos

Datos horarios

Fecha y hora oficial Temperatura (ºC) Velocidad del viento (km/h) Dirección del viento Racha (km/h) Dirección de racha Precipitación (mm) Presión (hPa) Tendencia (hPa) Humedad (%)
2019-04-23 23:00:00 1.4 12 Sudoeste 33 Oeste 0.4 -- -- 98
2019-04-23 22:00:00 1.3 8 Sudoeste 30 Sudoeste 0.4 -- -- 97
2019-04-23 21:00:00 1.1 18 Sudoeste 40 Sudoeste 0.2 -- -- 94
2019-04-23 20:00:00 2.4 9 Sudoeste 35 Sudoeste 0.2 -- -- 92
2019-04-23 19:00:00 1.3 15 Sudoeste 39 Sudoeste 0.6 -- -- 94
2019-04-23 18:00:00 3.9 7 Sudoeste 26 Oeste 0.6 -- -- 93
2019-04-23 17:00:00 3.5 8 Sudoeste 27 Sudoeste 3.2 -- -- 99
2019-04-23 16:00:00 0.7 9 Sudoeste 27 Sudoeste 0.8 -- -- 100
2019-04-23 15:00:00 -0.3 11 Sudoeste 41 Sudoeste 0.6 -- -- 98
2019-04-23 14:00:00 2.6 14 Sudoeste 43 Sudoeste 0.4 -- -- 95
2019-04-23 13:00:00 4.1 10 Sudoeste 31 Sudoeste 0 -- -- 89
2019-04-23 12:00:00 4.7 13 Sur 32 Sur 0 -- -- 80
2019-04-23 11:00:00 3.5 15 Sur 33 Sudoeste 0 -- -- 87
2019-04-23 10:00:00 2.8 11 Sur 27 Sudoeste 0 -- -- 92
2019-04-23 09:00:00 1.1 14 Sur 32 Sur 0 -- -- 96
2019-04-23 08:00:00 1.4 15 Sudoeste 34 Sudoeste 0 -- -- 97
2019-04-23 07:00:00 1.8 13 Sudoeste 34 Oeste 0 -- -- 98
2019-04-23 06:00:00 2.1 16 Sur 31 Sudoeste 0.2 -- -- 98
2019-04-23 05:00:00 2.6 11 Sudoeste 20 Sudoeste 0.2 -- -- 98
2019-04-23 04:00:00 2.8 11 Sur 21 Sur 0.4 -- -- 98
2019-04-23 03:00:00 3.1 6 Sur 26 Oeste 0.4 -- -- 99
2019-04-23 02:00:00 3.4 10 Sudoeste 29 Oeste 2.2 -- -- 99
2019-04-23 01:00:00 5 7 Oeste 22 Sur 0.6 -- -- 97
2019-04-23 00:00:00 5.3 9 Sudeste 30 Sudoeste 0.6 -- -- 93
2019-04-22 23:00:00 6.7 13 Sudoeste 27 Sudoeste 0 -- -- 85
2019-04-22 22:00:00 7.7 12 Sudoeste 28 Sudoeste 0 -- -- 76
2019-04-22 21:00:00 9 10 Sudoeste 24 Sudoeste 0 -- -- 71
2019-04-22 20:00:00 9.8 6 Sur 22 Sudoeste 0 -- -- 78
2019-04-22 19:00:00 10.2 9 Sur 29 Sudoeste 0 -- -- 74
2019-04-22 18:00:00 11.7 12 Sudoeste 31 Sudoeste 0 -- -- 71
2019-04-22 17:00:00 13.7 8 Sudoeste 24 Sudoeste 0 -- -- 61
2019-04-22 16:00:00 13.5 11 Sudoeste 30 Sudoeste 0 -- -- 58
2019-04-22 15:00:00 14 13 Sudoeste 30 Oeste 0 -- -- 57
2019-04-22 14:00:00 13 8 Sudoeste 26 Oeste 0 -- -- 65
2019-04-22 13:00:00 12.2 7 Sudoeste 22 Sudoeste 0 -- -- 67
2019-04-22 12:00:00 10.7 7 Sudoeste 21 Sudoeste 0 -- -- 71
2019-04-22 11:00:00 11 5 Sudoeste 20 Sudoeste 0 -- -- 71
2019-04-22 10:00:00 9.7 10 Sur 24 Sur 0 -- -- 73
2019-04-22 09:00:00 8.6 9 Sur 19 Sur 0 -- -- 73
2019-04-22 08:00:00 7.1 6 Sur 14 Sudeste 0 -- -- 78
2019-04-22 07:00:00 6.8 7 Sudeste 15 Sudeste 0 -- -- 78
2019-04-22 06:00:00 7.3 11 Sur 16 Sur 0 -- -- 76
2019-04-22 05:00:00 8 7 Sur 15 Sur 0 -- -- 71
2019-04-22 04:00:00 7.5 10 Sudeste 17 Sudeste 0 -- -- 74
2019-04-22 03:00:00 5.7 4 Sudeste 13 Este 0 -- -- 81
2019-04-22 02:00:00 6.4 4 Este 15 Sudeste 0 -- -- 78
2019-04-22 01:00:00 6.9 5 Este 18 Este 0 -- -- 76
2019-04-22 00:00:00 7.8 8 Este 25 Este 0 -- -- 72
2019-04-21 23:00:00 8.7 10 Nordeste 25 Este 0 -- -- 70
2019-04-21 22:00:00 9.2 9 Nordeste 27 Nordeste 0 -- -- 71
2019-04-21 21:00:00 10.4 7 Nordeste 25 Nordeste 0 -- -- 73
2019-04-21 20:00:00 11.4 9 Nordeste 28 Nordeste 0 -- -- 66
2019-04-21 19:00:00 12.7 8 Nordeste 28 Nordeste 0 -- -- 57
2019-04-21 18:00:00 13.7 9 Nordeste 27 Nordeste 0 -- -- 57
2019-04-21 17:00:00 13.8 12 Nordeste 29 Nordeste 0 -- -- 56
2019-04-21 16:00:00 13.6 11 Nordeste 26 Nordeste 0 -- -- 59
2019-04-21 15:00:00 15.8 9 Nordeste 30 Nordeste 0 -- -- 52
2019-04-21 14:00:00 14.3 10 Nordeste 30 Este 0 -- -- 53
2019-04-21 13:00:00 15.4 13 Nordeste 31 Este 0 -- -- 52
2019-04-21 12:00:00 15.1 11 Este 28 Este 0 -- -- 53
2019-04-21 11:00:00 13.6 8 Nordeste 24 Este 0 -- -- 58
2019-04-21 10:00:00 11.2 7 Este 21 Este 0 -- -- 62
2019-04-21 09:00:00 8.8 9 Este 24 Nordeste 0 -- -- 65
2019-04-21 08:00:00 6.6 5 Nordeste 18 Este 0 -- -- 71
2019-04-21 07:00:00 6.8 7 Este 19 Nordeste 0 -- -- 69
2019-04-21 06:00:00 7.4 9 Nordeste 28 Nordeste 0 -- -- 67
2019-04-21 05:00:00 7.4 8 Nordeste 24 Nordeste 0 -- -- 67
2019-04-21 04:00:00 7.9 10 Nordeste 24 Este 0 -- -- 64
2019-04-21 03:00:00 8.2 11 Nordeste 30 Nordeste 0 -- -- 63
2019-04-21 02:00:00 8.2 9 Este 25 Nordeste 0 -- -- 65
2019-04-21 01:00:00 8.4 10 Nordeste 30 Este 0 -- -- 65
2019-04-21 00:00:00 9.3 12 Este 37 Este 0 -- -- 67
2019-04-20 23:00:00 10.4 10 Este 40 Nordeste 0 -- -- 66
2019-04-20 22:00:00 11.5 14 Nordeste 39 Nordeste 0 -- -- 62
2019-04-20 21:00:00 12.6 13 Nordeste 35 Este 0 -- -- 56
2019-04-20 20:00:00 13.6 12 Nordeste 35 Nordeste 0 -- -- 54
2019-04-20 19:00:00 15.1 17 Nordeste 45 Nordeste 0 -- -- 48
2019-04-20 18:00:00 16.3 15 Nordeste 36 Este 0 -- -- 43
2019-04-20 17:00:00 17.1 13 Nordeste 36 Nordeste 0 -- -- 41
2019-04-20 16:00:00 17.2 13 Nordeste 37 Nordeste 0 -- -- 40
2019-04-20 15:00:00 17.9 11 Nordeste 37 Nordeste 0 -- -- 44
2019-04-20 14:00:00 18.1 12 Nordeste 32 Nordeste 0 -- -- 48
2019-04-20 13:00:00 16.3 12 Nordeste 39 Nordeste 0 -- -- 55
2019-04-20 12:00:00 13.3 13 Nordeste 41 Nordeste 0 -- -- 70
2019-04-20 11:00:00 12.8 13 Nordeste 30 Nordeste 0 -- -- 75
2019-04-20 10:00:00 10.8 10 Nordeste 22 Nordeste 0 -- -- 80
2019-04-20 09:00:00 9 7 Este 16 Este 0 -- -- 84
2019-04-20 08:00:00 8.2 5 Este 13 Este 0 -- -- 86
2019-04-20 07:00:00 7.7 4 Este 12 Este 0 -- -- 87
2019-04-20 06:00:00 7.6 5 Este 18 Sudeste 0 -- -- 87
2019-04-20 05:00:00 7.4 4 Este 14 Este 0 -- -- 88
2019-04-20 04:00:00 7.9 6 Este 20 Nordeste 0 -- -- 87
2019-04-20 03:00:00 8.4 7 Nordeste 17 Nordeste 0 -- -- 85
2019-04-20 02:00:00 8.3 6 Nordeste 14 Nordeste 0 -- -- 96
2019-04-20 01:00:00 8.4 6 Este 26 Este 0 -- -- 96
2019-04-20 00:00:00 8.9 11 Este 29 Este 0 -- -- 97
2019-04-19 23:00:00 9 9 Nordeste 29 Este 0 -- -- 97
2019-04-19 22:00:00 9.7 6 Nordeste 21 Nordeste 0 -- -- 94
2019-04-19 21:00:00 10.2 5 Este 19 Nordeste 0 -- -- 92
2019-04-19 20:00:00 11.3 4 Nordeste 12 Norte 0 -- -- 92
2019-04-19 19:00:00 11.5 5 Nordeste 16 Norte 0 -- -- 93
2019-04-19 18:00:00 12 7 Norte 17 Noroeste 0 -- -- 88
2019-04-19 17:00:00 14.4 5 Este 17 Norte 0 -- -- 69
2019-04-19 16:00:00 12.5 4 Nordeste 13 Nordeste 0 -- -- 75
2019-04-19 15:00:00 11.9 4 Este 17 Nordeste 0 -- -- 75
2019-04-19 14:00:00 11.2 7 Este 20 Este 0 -- -- 81
2019-04-19 13:00:00 10.4 6 Este 24 Este 0 -- -- 83
2019-04-19 12:00:00 9.7 7 Este 20 Sudeste 0.2 -- -- 100
2019-04-19 11:00:00 8 8 Este 23 Este 0 -- -- 100
2019-04-19 10:00:00 6.9 9 Este 24 Nordeste 0 -- -- 100
2019-04-19 09:00:00 6.5 12 Nordeste 36 Nordeste 0.2 -- -- 100
2019-04-19 08:00:00 6.4 11 Nordeste 34 Nordeste 0 -- -- 100
2019-04-19 07:00:00 6.4 10 Nordeste 27 Este 0 -- -- 100
2019-04-19 06:00:00 6.1 7 Nordeste 23 Nordeste 0 -- -- 100
2019-04-19 05:00:00 6 8 Nordeste 22 Nordeste 0 -- -- 100
2019-04-19 04:00:00 5.8 7 Nordeste 20 Este 0 -- -- 100
2019-04-19 03:00:00 5.9 8 Nordeste 21 Nordeste 0 -- -- 100
2019-04-19 02:00:00 5.9 7 Nordeste 15 Norte 0 -- -- 98
2019-04-19 01:00:00 6 8 Nordeste 22 Nordeste 0 -- -- 98
2019-04-19 00:00:00 5.9 7 Nordeste 21 Nordeste 0 -- -- 97
2019-04-18 23:00:00 6.4 8 Nordeste 26 Norte 0 -- -- 94
2019-04-18 22:00:00 6.6 10 Nordeste 28 Este 0 -- -- 94
2019-04-18 21:00:00 7.2 10 Nordeste 22 Este 0 -- -- 91
2019-04-18 20:00:00 8.1 11 Este 29 Nordeste 0 -- -- 88
2019-04-18 19:00:00 9 8 Nordeste 23 Nordeste 0 -- -- 88
2019-04-18 18:00:00 9.6 6 Nordeste 22 Norte 0 -- -- 86
2019-04-18 17:00:00 10.2 5 Norte 16 Norte 0 -- -- 80
2019-04-18 16:00:00 10.9 8 Noroeste 21 Norte 0 -- -- 78
2019-04-18 15:00:00 12.9 5 Este 12 Sudeste 0 -- -- 63
2019-04-18 14:00:00 12.2 4 Nordeste 17 Nordeste 0 -- -- 64
2019-04-18 13:00:00 10.7 5 Este 19 Este 0 -- -- 76
2019-04-18 12:00:00 10 5 Este 27 Este 0 -- -- 80
2019-04-18 11:00:00 9.6 3 Este 13 Este 0 -- -- 91
2019-04-18 10:00:00 7.8 4 Este 15 Este 0 -- -- 96
2019-04-18 09:00:00 6.1 3 Este 19 Sudeste 0 -- -- 98
2019-04-18 08:00:00 5.6 11 Sudeste 19 Sudeste 0 -- -- 94
2019-04-18 07:00:00 5.1 7 Sudeste 16 Sudeste 0 -- -- 98
2019-04-18 06:00:00 5.3 8 Sudeste 15 Sudeste 0 -- -- 95
2019-04-18 05:00:00 5.1 9 Sudeste 15 Sudeste 0 -- -- 98
2019-04-18 04:00:00 5.4 8 Sudeste 13 Sudeste 0.2 -- -- 99
2019-04-18 03:00:00 5.6 8 Sur 21 Sur 1.8 -- -- 100
2019-04-18 02:00:00 5.8 4 Sur 18 Sudoeste 0.6 -- -- 100
2019-04-18 01:00:00 5.8 11 Sudoeste 31 Sudoeste 0.4 -- -- 100
2019-04-18 00:00:00 5.8 17 Oeste 30 Sudoeste 0.4 -- -- 100
2019-04-17 23:00:00 6.3 18 Oeste 28 Sudoeste 0.6 -- -- 100
2019-04-17 22:00:00 7 14 Oeste 24 Oeste 0.2 -- -- 99
2019-04-17 21:00:00 7.8 4 Sudoeste 25 Oeste 0.4 -- -- 97
2019-04-17 20:00:00 8.3 15 Oeste 28 Sudoeste 1 -- -- 97
2019-04-17 19:00:00 8.9 18 Oeste 27 Oeste 0 -- -- 95
2019-04-17 18:00:00 11.9 8 Sudoeste 23 Sudeste 0 -- -- 65
2019-04-17 17:00:00 12 12 Sur 27 Sudoeste 0 -- -- 64
2019-04-17 16:00:00 12 11 Sur 35 Sudeste 0 -- -- 62
2019-04-17 15:00:00 12.9 8 Sudeste 34 Sur 0 -- -- 60
2019-04-17 14:00:00 13.1 12 Sudeste 52 Este 0 -- -- 59
2019-04-17 13:00:00 11.9 17 Sudeste 53 Sudeste 0 -- -- 62
2019-04-17 12:00:00 12 14 Sudeste 37 Sudeste 0 -- -- 64
2019-04-17 11:00:00 11.2 10 Sudeste 28 Sudoeste 0 -- -- 67
2019-04-17 10:00:00 10.9 8 Sudeste 25 Sudeste 0 -- -- 67
2019-04-17 09:00:00 10.4 10 Sudeste 35 Sudeste 0 -- -- 65
2019-04-17 08:00:00 10.2 15 Sudeste 40 Sudeste 0 -- -- 62
2019-04-17 07:00:00 10.5 18 Sudeste 42 Este 0 -- -- 60
2019-04-17 06:00:00 10.2 17 Este 46 Este 0 -- -- 59
2019-04-17 05:00:00 10.5 20 Sudeste 41 Sudeste 0 -- -- 58
2019-04-17 04:00:00 10.3 15 Sudeste 45 Sudeste 0 -- -- 58
2019-04-17 03:00:00 10.1 16 Sudeste 40 Sudeste 0 -- -- 58
2019-04-17 02:00:00 10.2 9 Sudeste 31 Sudeste 0 -- -- 58
2019-04-17 01:00:00 9.9 10 Este 31 Este 0 -- -- 58
2019-04-17 00:00:00 10.1 6 Sudeste 15 Sudeste 0 -- -- 60
2019-04-16 23:00:00 10.1 5 Este 16 Sudeste 0 -- -- 65
2019-04-16 22:00:00 11.5 9 Sudeste 14 Sudeste 0 -- -- 57
2019-04-16 21:00:00 11.3 9 Sudoeste 18 Oeste 0 -- -- 59
2019-04-16 20:00:00 13.2 9 Sudoeste 19 Sudoeste 0 -- -- 51
2019-04-16 19:00:00 14.5 4 Sur 17 Sur 0 -- -- 48
2019-04-16 18:00:00 14.9 5 Sudeste 17 Este 0 -- -- 49
2019-04-16 17:00:00 14.6 5 Este 19 Este 0 -- -- 54
2019-04-16 16:00:00 14.2 5 Este 26 Este 0 -- -- 55
2019-04-16 15:00:00 14.2 4 Este 17 Sur 0 -- -- 56
2019-04-16 14:00:00 13.2 4 Norte 17 Sudeste 0 -- -- 60
2019-04-16 13:00:00 12.3 4 Este 22 Nordeste 0 -- -- 62
2019-04-16 12:00:00 10.9 4 Este 15 Sudeste 0 -- -- 70
2019-04-16 11:00:00 9 6 Sudeste 23 Sudeste 0 -- -- 76
2019-04-16 10:00:00 7 5 Este 22 Sudeste 0 -- -- 87
2019-04-16 09:00:00 4.7 9 Sudeste 21 Sudeste 0 -- -- 81
2019-04-16 08:00:00 3.9 11 Sudeste 18 Sur 0 -- -- 82
2019-04-16 07:00:00 4.2 11 Sur 21 Sur 0 -- -- 82
2019-04-16 06:00:00 3.6 8 Sudeste 18 Sur 0 -- -- 87
2019-04-16 05:00:00 3.6 5 Sur 17 Sur 0 -- -- 86
2019-04-16 04:00:00 3.4 9 Sudeste 22 Sur 0 -- -- 95
2019-04-16 03:00:00 3.7 9 Sudoeste 18 Sudoeste 0 -- -- 95
2019-04-16 02:00:00 3.7 12 Sudoeste 19 Sudoeste 0 -- -- 96
2019-04-16 01:00:00 3.8 3 Sudeste 13 Sudoeste 0 -- -- 99
2019-04-16 00:00:00 4.4 6 Sudoeste 21 Oeste 0 -- -- 98
2019-04-15 23:00:00 4.7 8 Oeste 22 Oeste 0 -- -- 96
2019-04-15 22:00:00 5.3 11 Oeste 24 Oeste 0 -- -- 92
2019-04-15 21:00:00 6.2 9 Oeste 26 Oeste 0 -- -- 85
2019-04-15 20:00:00 6.9 13 Oeste 36 Oeste 0 -- -- 85
2019-04-15 19:00:00 7.4 18 Oeste 41 Sudoeste 0 -- -- 84
2019-04-15 18:00:00 7.6 15 Oeste 36 Oeste 0 -- -- 97
2019-04-15 17:00:00 7.2 9 Oeste 32 Oeste 2.8 -- -- 97
2019-04-15 16:00:00 7.1 10 Sur 31 Sudoeste 0.2 -- -- 99
2019-04-15 15:00:00 6.5 12 Sudoeste 33 Sudoeste 2 -- -- 98
2019-04-15 14:00:00 7.1 16 Sudoeste 37 Sudoeste 2.8 -- -- 99
2019-04-15 13:00:00 8.1 13 Sudoeste 44 Sudoeste 1 -- -- 97
2019-04-15 12:00:00 10.4 12 Sur 35 Sudoeste 0 -- -- 89
2019-04-15 11:00:00 9.9 9 Sur 40 Sudoeste 0 -- -- 95
2019-04-15 10:00:00 9.3 17 Sudoeste 42 Sudoeste 2.6 -- -- 98
2019-04-15 09:00:00 10.4 11 Sudoeste 40 Oeste 4.4 -- -- 95
2019-04-15 08:00:00 12.5 14 Sur 29 Sur 0 -- -- 81
2019-04-15 07:00:00 12.1 8 Sudeste 23 Sur 0 -- -- 81
2019-04-15 06:00:00 12.4 9 Sudeste 27 Sur 0 -- -- 81
2019-04-15 05:00:00 12.5 12 Sur 23 Sur 0 -- -- 82
2019-04-15 04:00:00 12.2 8 Sudeste 26 Sur 0 -- -- 84
2019-04-15 03:00:00 12.2 7 Sudeste 18 Sudoeste 0 -- -- 83
2019-04-15 02:00:00 12.4 13 Sur 22 Sur 0 -- -- 82
2019-04-15 01:00:00 12.2 7 Sudeste 16 Sur 0 -- -- 82
2019-04-15 00:00:00 12.4 10 Sur 18 Sudeste 0 -- -- 83
2019-04-14 23:00:00 12.3 9 Sudoeste 26 Sudoeste 0 -- -- 88
2019-04-14 22:00:00 12.5 6 Sudoeste 15 Sudoeste 0 -- -- 85
2019-04-14 21:00:00 13.1 9 Sudoeste 20 Oeste 0 -- -- 84
2019-04-14 20:00:00 13.8 12 Sudoeste 25 Sudoeste 0 -- -- 84
2019-04-14 19:00:00 14.2 10 Oeste 26 Oeste 0 -- -- 81
2019-04-14 18:00:00 14.6 6 Oeste 17 Oeste 0 -- -- 79
2019-04-14 17:00:00 14.6 8 Sudoeste 18 Sudoeste 0 -- -- 80
2019-04-14 16:00:00 14.3 9 Oeste 20 Sudoeste 0 -- -- 80
2019-04-14 15:00:00 13.9 8 Oeste 19 Sudoeste 0 -- -- 81
2019-04-14 14:00:00 13.3 9 Oeste 21 Oeste 0 -- -- 84
2019-04-14 13:00:00 12.7 10 Sudoeste 28 Oeste 0 -- -- 87
2019-04-14 12:00:00 12.7 9 Oeste 18 Sudoeste 0 -- -- 87
2019-04-14 11:00:00 11.8 6 Sudoeste 17 Sudoeste 0 -- -- 90
2019-04-14 10:00:00 10.6 5 Sudoeste 19 Sur 0 -- -- 99
2019-04-14 09:00:00 10.1 6 Sudoeste 21 Oeste 0 -- -- 100
2019-04-14 08:00:00 10 6 Sudoeste 18 Sudoeste 0 -- -- 100
2019-04-14 07:00:00 9.9 5 Sudoeste 20 Sudoeste 0 -- -- 100
2019-04-14 06:00:00 9.9 5 Sudoeste 15 Oeste 0 -- -- 99
2019-04-14 05:00:00 9.7 5 Sudoeste 21 Sur 0 -- -- 99
2019-04-14 04:00:00 9.6 8 Sudoeste 22 Sudoeste 0 -- -- 100
2019-04-14 03:00:00 9.5 6 Sur 19 Sur 0 -- -- 100
2019-04-14 02:00:00 9.4 6 Sudoeste 17 Oeste 0 -- -- 99
2019-04-14 01:00:00 9.4 6 Sur 16 Sur 0 -- -- 99
2019-04-14 00:00:00 9.5 4 Sudeste 19 Sudeste 0 -- -- 98
2019-04-13 23:00:00 9.8 7 Sudoeste 16 Sur 0 -- -- 96
2019-04-13 22:00:00 9.9 6 Sudoeste 23 Oeste 0 -- -- 93
2019-04-13 21:00:00 10.6 11 Oeste 24 Sudoeste 0 -- -- 85
2019-04-13 20:00:00 11.5 13 Oeste 27 Sudoeste 0 -- -- 78
2019-04-13 19:00:00 13.6 9 Oeste 23 Oeste 0 -- -- 63
2019-04-13 18:00:00 14 9 Oeste 21 Sudoeste 0 -- -- 62
2019-04-13 17:00:00 14.6 9 Oeste 22 Oeste 0 -- -- 58
2019-04-13 16:00:00 14.4 9 Oeste 24 Sudoeste 0 -- -- 52
2019-04-13 15:00:00 14.1 11 Oeste 26 Oeste 0 -- -- 46
2019-04-13 14:00:00 14.8 10 Oeste 27 Oeste 0 -- -- 47
2019-04-13 13:00:00 13.8 10 Oeste 22 Oeste 0 -- -- 61
2019-04-13 12:00:00 13.4 4 Este 12 Sur 0 -- -- 61
2019-04-13 11:00:00 11 3 Oeste 12 Sur 0 -- -- 64
2019-04-13 10:00:00 9.6 4 Sur 14 Sudeste 0 -- -- 66
2019-04-13 09:00:00 8.7 9 Sur 17 Sudeste 0 -- -- 66
2019-04-13 08:00:00 7.5 10 Sudeste 14 Sudeste 0 -- -- 75
2019-04-13 07:00:00 7.4 8 Sudeste 10 Sudeste 0 -- -- 74
2019-04-13 06:00:00 7.4 6 Sudoeste 8 Oeste 0 -- -- 77
2019-04-13 05:00:00 7.4 5 Sudoeste 6 Sudoeste 0 -- -- 75
2019-04-13 04:00:00 6.9 3 Sudeste 6 Sudeste 0 -- -- 82
2019-04-13 03:00:00 7.2 6 Oeste 12 Oeste 0 -- -- 82
2019-04-13 02:00:00 7.3 4 Oeste 8 Oeste 0 -- -- 79
2019-04-13 01:00:00 7.8 2 Sudeste 9 Norte 0 -- -- 80
2019-04-13 00:00:00 8.1 6 Noroeste 17 Noroeste 0 -- -- 81
2019-04-12 23:00:00 8.2 12 Noroeste 20 Noroeste 0 -- -- 82
2019-04-12 22:00:00 9.2 12 Oeste 17 Oeste 0 -- -- 63
2019-04-12 21:00:00 10.4 9 Oeste 16 Oeste 0 -- -- 51
2019-04-12 20:00:00 12.4 6 Oeste 20 Oeste 0 -- -- 44
2019-04-12 19:00:00 13.2 7 Oeste 22 Noroeste 0 -- -- 44
2019-04-12 18:00:00 13.5 10 Oeste 23 Oeste 0 -- -- 51
2019-04-12 17:00:00 13.3 9 Oeste 21 Oeste 0 -- -- 47
2019-04-12 16:00:00 12.3 11 Oeste 22 Oeste 0 -- -- 58
2019-04-12 15:00:00 11.2 9 Oeste 23 Oeste 0 -- -- 68
2019-04-12 14:00:00 10.2 10 Oeste 19 Noroeste 0 -- -- 70
2019-04-12 13:00:00 9.7 4 Noroeste 10 Noroeste 0 -- -- 73
2019-04-12 12:00:00 8.7 3 Nordeste 11 Noroeste 0 -- -- 76
2019-04-12 11:00:00 7.4 5 Sudoeste 12 Oeste 0 -- -- 74
2019-04-12 10:00:00 6.5 6 Sudoeste 15 Sudoeste 0 -- -- 75
2019-04-12 09:00:00 5.1 3 Sur 9 Sudoeste 0 -- -- 79
2019-04-12 08:00:00 3.3 6 Sudoeste 10 Sur 0 -- -- 81
2019-04-12 07:00:00 5 10 Sur 12 Sudeste 0 -- -- 72
2019-04-12 06:00:00 3.7 8 Sudeste 11 Sudeste 0 -- -- 81
2019-04-12 05:00:00 3 4 Sudeste 8 Sudeste 0 -- -- 87
2019-04-12 04:00:00 2.7 4 Sudeste 9 Sudeste 0 -- -- 95
2019-04-12 03:00:00 2.5 4 Este 8 Este 0 -- -- 99
2019-04-12 02:00:00 2.6 4 Este 11 Este 0 -- -- 99
2019-04-12 01:00:00 2.9 5 Este 14 Este 0 -- -- 99
2019-04-12 00:00:00 3.4 5 Este 11 Nordeste 0 -- -- 97
2019-04-11 23:00:00 4.1 6 Nordeste 16 Nordeste 0 -- -- 95
2019-04-11 22:00:00 4.7 8 Nordeste 15 Nordeste 0 -- -- 92
2019-04-11 21:00:00 5.9 5 Nordeste 13 Nordeste 0 -- -- 83
2019-04-11 20:00:00 7.9 3 Nordeste 11 Nordeste 0 -- -- 77
2019-04-11 19:00:00 8.4 4 Este 13 Nordeste 0 -- -- 75
2019-04-11 18:00:00 8.5 6 Nordeste 17 Nordeste 0 -- -- 75
2019-04-11 17:00:00 7.9 5 Norte 16 Norte 0 -- -- 76
2019-04-11 16:00:00 7.9 6 Norte 16 Norte 0 -- -- 75
2019-04-11 15:00:00 7.2 5 Norte 16 Nordeste 0 -- -- 78
2019-04-11 14:00:00 9.2 6 Este 14 Nordeste 0 -- -- 73
2019-04-11 13:00:00 8.2 5 Nordeste 13 Este 0 -- -- 74
2019-04-11 12:00:00 6.6 5 Este 13 Este 0 -- -- 92
2019-04-11 11:00:00 5.3 3 Nordeste 12 Nordeste 0 -- -- 100
2019-04-11 10:00:00 3.7 4 Este 14 Este 0 -- -- 100
2019-04-11 09:00:00 2.2 5 Este 12 Este 0 -- -- 100
2019-04-11 08:00:00 1.6 5 Este 10 Este 0 -- -- 100
2019-04-11 07:00:00 1.8 5 Este 14 Sudeste 0 -- -- 100
2019-04-11 06:00:00 1.7 5 Este 12 Este 0 -- -- 100
2019-04-11 05:00:00 2.1 4 Este 14 Este 0 -- -- 100
2019-04-11 04:00:00 1.8 6 Este 13 Este 0 -- -- 100
2019-04-11 03:00:00 2.4 4 Nordeste 12 Este 0 -- -- 100
2019-04-11 02:00:00 2.7 5 Este 13 Nordeste 0 -- -- 100
2019-04-11 01:00:00 3.2 5 Nordeste 12 Nordeste 0 -- -- 100
2019-04-11 00:00:00 3.2 5 Nordeste 13 Norte 0 -- -- 100
2019-04-10 23:00:00 3.3 6 Nordeste 17 Nordeste 0 -- -- 98
2019-04-10 22:00:00 3.8 6 Nordeste 18 Nordeste 0 -- -- 97
2019-04-10 21:00:00 4.6 4 Nordeste 17 Nordeste 0 -- -- 94
2019-04-10 20:00:00 5.4 5 Nordeste 23 Nordeste 0 -- -- 92
2019-04-10 19:00:00 6.9 6 Norte 18 Norte 0 -- -- 89
2019-04-10 18:00:00 6.4 9 Norte 31 Norte 0 -- -- 91
2019-04-10 17:00:00 7.1 9 Norte 24 Norte 0 -- -- 98
2019-04-10 16:00:00 6.9 8 Norte 23 Norte 0 -- -- 100
2019-04-10 15:00:00 6.1 9 Norte 25 Noroeste 0.6 -- -- 100
2019-04-10 14:00:00 5.7 9 Noroeste 24 Noroeste 0 -- -- 100
2019-04-10 13:00:00 5.2 10 Noroeste 27 Noroeste 0.8 -- -- 100
2019-04-10 12:00:00 4.3 15 Oeste 32 Oeste 1.4 -- -- 100
2019-04-10 11:00:00 3.7 21 Oeste 40 Oeste 0.2 -- -- 100
2019-04-10 10:00:00 3.4 18 Oeste 42 Noroeste 0.2 -- -- 100
2019-04-10 09:00:00 3.1 21 Oeste 36 Oeste 0.6 -- -- 100
2019-04-10 08:00:00 2.9 18 Oeste 38 Sudoeste 1 -- -- 100
2019-04-10 07:00:00 2.6 17 Oeste 44 Oeste 2 -- -- 100
2019-04-10 06:00:00 2.4 17 Oeste 40 Oeste 0.8 -- -- 100
2019-04-10 05:00:00 2.4 15 Oeste 46 Oeste 0.2 -- -- 100
2019-04-10 04:00:00 2.5 15 Oeste 41 Oeste 2.2 -- -- 100
2019-04-10 03:00:00 2.6 10 Sudoeste 30 Oeste 0.8 -- -- 100
2019-04-10 02:00:00 2.6 11 Oeste 36 Sudoeste 0.2 -- -- 100
2019-04-10 01:00:00 3 15 Oeste 33 Oeste 0 -- -- 100
2019-04-10 00:00:00 3.1 16 Oeste 35 Oeste 0.2 -- -- 100
2019-04-09 23:00:00 3.2 14 Oeste 33 Oeste 0.2 -- -- 100
2019-04-09 22:00:00 2.8 8 Sudoeste 37 Sudoeste 2 -- -- 100
2019-04-09 21:00:00 3 9 Oeste 40 Sudoeste 0.4 -- -- 100
2019-04-09 20:00:00 3.5 14 Sudoeste 37 Sudoeste 2.6 -- -- 100
2019-04-09 19:00:00 3.8 11 Sudeste 40 Sudoeste 0.6 -- -- 100
2019-04-09 18:00:00 3.9 12 Sudoeste 41 Oeste 0.8 -- -- 100
2019-04-09 17:00:00 4.7 10 Sudoeste 35 Sudoeste 0.6 -- -- 96
2019-04-09 16:00:00 4.4 10 Sur 25 Sudoeste 1.2 -- -- 100
2019-04-09 15:00:00 2.2 12 Oeste 39 Oeste 3.2 -- -- 100
2019-04-09 14:00:00 4.1 11 Sudoeste 36 Oeste 0.2 -- -- 96
2019-04-09 13:00:00 3.2 8 Sudoeste 30 Sur 0.2 -- -- 100
2019-04-09 12:00:00 2.5 10 Sur 25 Sudoeste 1.2 -- -- 100
2019-04-09 11:00:00 2.5 9 Sudoeste 23 Sudoeste 0.2 -- -- 99
2019-04-09 10:00:00 1.8 8 Sur 23 Sudoeste 0 -- -- 100
2019-04-09 09:00:00 1.3 9 Sudoeste 25 Oeste 1 -- -- 100
2019-04-09 08:00:00 1.3 11 Sudoeste 26 Sudoeste 2.2 -- -- 98
2019-04-09 07:00:00 1.9 10 Sudoeste 39 Oeste 0 -- -- 99
2019-04-09 06:00:00 2.1 16 Sur 39 Sur 0.2 -- -- 99
2019-04-09 05:00:00 2 21 Sur 39 Sur 0.4 -- -- 99
2019-04-09 04:00:00 2 21 Sur 50 Sur 0.4 -- -- 98
2019-04-09 03:00:00 2.7 17 Sur 36 Sudoeste 0.2 -- -- 98
2019-04-09 02:00:00 2.5 18 Sur 37 Sur 0 -- -- 99
2019-04-09 01:00:00 2.4 20 Sur 39 Sur 0.2 -- -- 99
2019-04-09 00:00:00 2.9 15 Sur 40 Sur 0.8 -- -- 96
2019-04-08 23:00:00 3.5 18 Sur 37 Sur 0 -- -- 91
2019-04-08 22:00:00 3.4 15 Sur 38 Sudoeste 0 -- -- 92
2019-04-08 21:00:00 3.4 15 Sur 38 Sudoeste 0 -- -- 94
2019-04-08 20:00:00 3.8 15 Sudoeste 40 Oeste 0.6 -- -- 95
2019-04-08 19:00:00 6.8 8 Sudoeste 37 Sudoeste 0 -- -- 79
2019-04-08 18:00:00 6.8 14 Sur 37 Sudoeste 0.2 -- -- 78
2019-04-08 17:00:00 7.1 11 Sur 30 Oeste 0 -- -- 81
2019-04-08 16:00:00 5.8 14 Sudoeste 39 Sudoeste 0.6 -- -- 84
2019-04-08 15:00:00 4.5 13 Sudoeste 36 Sudoeste 0.2 -- -- 87
2019-04-08 14:00:00 4.9 13 Sur 30 Sur 0.2 -- -- 95
2019-04-08 13:00:00 4.2 12 Sudoeste 33 Sur 0.2 -- -- 92
2019-04-08 12:00:00 4.2 9 Sur 33 Oeste 0 -- -- 92
2019-04-08 11:00:00 4.1 9 Sur 32 Oeste 0 -- -- 97
2019-04-08 10:00:00 2.8 9 Sudoeste 26 Oeste 0 -- -- 100
2019-04-08 09:00:00 2.6 4 Sur 25 Oeste 0 -- -- 100
2019-04-08 08:00:00 2.4 7 Sudoeste 26 Oeste 0 -- -- 100
2019-04-08 07:00:00 3 8 Sur 32 Sudoeste 0 -- -- 100
2019-04-08 06:00:00 3.6 9 Sudoeste 35 Sudoeste 0 -- -- 100
2019-04-08 05:00:00 4.2 12 Oeste 32 Sudoeste 0.4 -- -- 100
2019-04-08 04:00:00 4.6 8 Oeste 30 Sudoeste 1.6 -- -- 100
2019-04-08 03:00:00 5.1 9 Sudoeste 32 Sudoeste 0 -- -- 100
2019-04-08 02:00:00 5.7 13 Sudoeste 40 Sudoeste 0 -- -- 100
2019-04-08 01:00:00 5.6 14 Sur 42 Oeste 0.6 -- -- 100
2019-04-08 00:00:00 4.8 16 Sur 38 Sur 2.2 -- -- 100
2019-04-07 23:00:00 4.8 10 Sur 21 Sur 1.2 -- -- 100
2019-04-07 22:00:00 5.2 6 Sur 36 Sur 2.4 -- -- 99
2019-04-07 21:00:00 4.8 18 Sur 41 Sur 0.4 -- -- 100
2019-04-07 20:00:00 4.4 21 Sur 42 Sur 1.4 -- -- 100
2019-04-07 19:00:00 2.5 13 Sudeste 23 Sudeste 1.6 -- -- 100
2019-04-07 18:00:00 2.7 13 Sudeste 25 Este 1.4 -- -- 99
2019-04-07 17:00:00 3.1 10 Sudeste 28 Sur 1.4 -- -- 98
2019-04-07 16:00:00 3.6 15 Sur 31 Sudoeste 0.2 -- -- 91
2019-04-07 15:00:00 5.2 11 Sur 27 Sudoeste 0 -- -- 81
2019-04-07 14:00:00 5.2 9 Sur 24 Sudoeste 0 -- -- 79
2019-04-07 13:00:00 4.8 11 Sur 25 Sur 0 -- -- 80
2019-04-07 12:00:00 3.1 8 Sur 19 Sudoeste 1 -- -- 100
2019-04-07 11:00:00 2.3 8 Sur 17 Sur 1.2 -- -- 100
2019-04-07 10:00:00 0.9 4 Sur 11 Sur 0.6 -- -- 100
2019-04-07 09:00:00 0.3 4 Sur 15 Sudoeste 0.2 -- -- 100
2019-04-07 08:00:00 0 5 Sudoeste 17 Sudoeste 0 -- -- 100
2019-04-07 07:00:00 0 6 Sudoeste 19 Sudoeste 0.2 -- -- 100
2019-04-07 06:00:00 0 5 Sur 16 Sudoeste 0 -- -- 100
2019-04-07 05:00:00 -0.1 4 Sudoeste 16 Oeste 0 -- -- 100
2019-04-07 04:00:00 0 6 Sudoeste 22 Sudoeste 0.2 -- -- 100
2019-04-07 03:00:00 0.1 6 Sudoeste 24 Sudoeste 0 -- -- 100
2019-04-07 02:00:00 0.1 11 Sudoeste 27 Oeste 0.2 -- -- 100
2019-04-07 01:00:00 0 7 Oeste 20 Oeste 0 -- -- 100
2019-04-07 00:00:00 -0.1 5 Sudoeste 22 Oeste 0 -- -- 100
2019-04-06 23:00:00 -0.4 13 Oeste 32 Sur 0 -- -- 100
2019-04-06 22:00:00 0.6 11 Oeste 36 Sudoeste 0.4 -- -- 100
2019-04-06 21:00:00 0.8 10 Oeste 28 Oeste 0.4 -- -- 100
2019-04-06 20:00:00 1.4 8 Sudoeste 32 Oeste 1.2 -- -- 100
2019-04-06 19:00:00 1.7 14 Oeste 36 Oeste 1.8 -- -- 100
2019-04-06 18:00:00 0.5 19 Oeste 40 Oeste 1.8 -- -- 100
2019-04-06 17:00:00 0.7 15 Oeste 37 Oeste 2 -- -- 100
2019-04-06 16:00:00 0.2 10 Sudoeste 32 Oeste 1.4 -- -- 100
2019-04-06 15:00:00 0.8 15 Oeste 35 Sudoeste 2.2 -- -- 100
2019-04-06 14:00:00 0.2 12 Oeste 29 Sudoeste 1.2 -- -- 100
2019-04-06 13:00:00 0.3 8 Sur 32 Oeste 1.4 -- -- 100
2019-04-06 12:00:00 0.3 8 Sur 28 Sudoeste 1.8 -- -- 100
2019-04-06 11:00:00 0.3 9 Sudoeste 33 Sur 0.6 -- -- 100
2019-04-06 10:00:00 -0.2 15 Sur 41 Sudoeste 0 -- -- 100
2019-04-06 09:00:00 -0.4 17 Sur 39 Sur 0 -- -- 100
2019-04-06 08:00:00 -0.5 18 Sur 35 Sur 0 -- -- 100
2019-04-06 07:00:00 -0.5 15 Sur 38 Sudoeste 0 -- -- 100
2019-04-06 06:00:00 -0.5 13 Sur 32 Sur 0.2 -- -- 100
2019-04-06 05:00:00 -0.3 11 Sur 37 Sudoeste 0 -- -- 100
2019-04-06 04:00:00 -0.2 14 Sur 32 Sudoeste 0 -- -- 100
2019-04-06 03:00:00 -0.3 9 Sur 32 Sudoeste 0 -- -- 100
2019-04-06 02:00:00 0.1 9 Sudoeste 31 Sudoeste 0.2 -- -- 100
2019-04-06 01:00:00 0.8 10 Sudoeste 31 Sudoeste 0.2 -- -- 100
2019-04-06 00:00:00 0.5 10 Sudoeste 26 Sur 0.4 -- -- 100
2019-04-05 23:00:00 0.6 8 Sur 25 Sudoeste 0.4 -- -- 100
2019-04-05 22:00:00 0.6 8 Sudoeste 25 Sudoeste 0 -- -- 100
2019-04-05 21:00:00 1 4 Sur 18 Sudoeste 0.4 -- -- 99
2019-04-05 20:00:00 1.4 8 Sudoeste 24 Oeste 0.8 -- -- 98
2019-04-05 19:00:00 2.2 8 Sur 24 Sudoeste 0 -- -- 95
2019-04-05 18:00:00 2.3 6 Sudoeste 32 Oeste 0 -- -- 95
2019-04-05 17:00:00 2.6 7 Sudeste 32 Sudoeste 0 -- -- 94
2019-04-05 16:00:00 2.4 13 Sur 40 Sudoeste 0.8 -- -- 99
2019-04-05 15:00:00 2.1 13 Sudoeste 33 Sudoeste 0 -- -- 87
2019-04-05 14:00:00 2 13 Sur 32 Sur 0.8 -- -- 91
2019-04-05 13:00:00 1.5 15 Sur 32 Sur 2 -- -- 89
2019-04-05 12:00:00 0.5 10 Sur 35 Sur 2.2 -- -- 95
2019-04-05 11:00:00 -0.1 15 Sur 35 Sur 0.2 -- -- 99
2019-04-05 10:00:00 -0.9 14 Sur 32 Sudoeste 0 -- -- 100
2019-04-05 09:00:00 -1 6 Sur 23 Sudoeste 0 -- -- 100
2019-04-05 08:00:00 -1.1 5 Sur 17 Sudoeste 0 -- -- 100
2019-04-05 07:00:00 -0.9 5 Sur 17 Sudoeste 0 -- -- 100
2019-04-05 06:00:00 -1 6 Sur 18 Oeste 0 -- -- 100
2019-04-05 05:00:00 -0.8 7 Oeste 19 Sudoeste 0 -- -- 100
2019-04-05 04:00:00 -0.3 6 Sudoeste 14 Sudoeste 0 -- -- 100
2019-04-05 03:00:00 -0.3 4 Sur 22 Sudoeste 0 -- -- 100
2019-04-05 02:00:00 -0.3 8 Sudoeste 27 Oeste 0.2 -- -- 100
2019-04-05 01:00:00 0.3 8 Sudoeste 28 Sudoeste 0.4 -- -- 100
2019-04-05 00:00:00 0.4 8 Sudoeste 21 Sur 0.6 -- -- 99
2019-04-04 23:00:00 0.5 13 Sur 26 Sudoeste 0.4 -- -- 99
2019-04-04 22:00:00 0.8 11 Sur 30 Sudoeste 0.4 -- -- 98
2019-04-04 21:00:00 1.6 15 Sur 43 Sur 0.4 -- -- 98
2019-04-04 20:00:00 1.7 20 Sur 45 Sudeste 0.2 -- -- 98
2019-04-04 19:00:00 1.6 21 Sur 44 Sur 0.4 -- -- 98
2019-04-04 18:00:00 1.6 16 Sur 44 Sur 0.2 -- -- 98
2019-04-04 17:00:00 1.5 18 Sur 42 Sudoeste 0.4 -- -- 98
2019-04-04 16:00:00 1.8 16 Sur 36 Oeste 0.2 -- -- 96
2019-04-04 15:00:00 1.9 16 Sur 39 Sudeste 0.2 -- -- 95
2019-04-04 14:00:00 2.6 12 Sudoeste 33 Sudoeste 0 -- -- 91
2019-04-04 13:00:00 2.5 13 Sur 33 Sudoeste 0 -- -- 98
2019-04-04 12:00:00 1.5 11 Sur 32 Sur 1.8 -- -- 100
2019-04-04 11:00:00 0.2 7 Sudoeste 23 Oeste 0.4 -- -- 100
2019-04-04 10:00:00 -0.6 6 Sur 17 Oeste 0 -- -- 100
2019-04-04 09:00:00 -1 6 Sudoeste 16 Sur 0 -- -- 100
2019-04-04 08:00:00 -1.2 3 Sur 16 Oeste 0 -- -- 100
2019-04-04 07:00:00 -1.2 7 Oeste 18 Oeste 0 -- -- 100
2019-04-04 06:00:00 -1.2 8 Oeste 19 Sudoeste 0 -- -- 100
2019-04-04 05:00:00 -1.4 6 Oeste 19 Oeste 0 -- -- 100
2019-04-04 04:00:00 -1.2 10 Oeste 24 Oeste 0 -- -- 100
2019-04-04 03:00:00 -1.1 11 Oeste 25 Oeste 0 -- -- 100
2019-04-04 02:00:00 -1.3 12 Oeste 24 Oeste 0 -- -- 100
2019-04-04 01:00:00 -1.1 12 Oeste 22 Oeste 0 -- -- 100
2019-04-04 00:00:00 -1.1 10 Noroeste 25 Norte 0 -- -- 100
2019-04-03 23:00:00 -0.8 15 Noroeste 33 Oeste 0 -- -- 100
2019-04-03 22:00:00 -0.6 17 Oeste 36 Noroeste 0 -- -- 100
2019-04-03 21:00:00 -0.4 11 Noroeste 33 Noroeste 0.2 -- -- 98
2019-04-03 20:00:00 -0.1 17 Noroeste 33 Noroeste 0.2 -- -- 97
2019-04-03 19:00:00 2.3 13 Noroeste 33 Oeste 0 -- -- 82
2019-04-03 18:00:00 2.8 15 Noroeste 33 Norte 0 -- -- 76
2019-04-03 17:00:00 2.7 10 Noroeste 37 Oeste 0 -- -- 89
2019-04-03 16:00:00 2.3 12 Noroeste 32 Noroeste 1 -- -- 95
2019-04-03 15:00:00 0.3 16 Noroeste 32 Noroeste 0 -- -- 98
2019-04-03 14:00:00 1.2 14 Noroeste 31 Oeste 0 -- -- 100
2019-04-03 13:00:00 0.8 10 Noroeste 29 Noroeste 1.2 -- -- 100
2019-04-03 12:00:00 0.1 13 Noroeste 28 Noroeste 0.2 -- -- 100
2019-04-03 11:00:00 0.4 14 Noroeste 31 Oeste 0.6 -- -- 100
2019-04-03 10:00:00 -0.2 17 Noroeste 38 Oeste 0 -- -- 100
2019-04-03 09:00:00 -0.3 14 Noroeste 26 Oeste 0 -- -- 100
2019-04-03 08:00:00 -0.2 11 Oeste 26 Oeste 0 -- -- 100
2019-04-03 07:00:00 0.1 13 Oeste 23 Oeste 0.2 -- -- 100
2019-04-03 06:00:00 0 11 Noroeste 25 Oeste 0 -- -- 100
2019-04-03 05:00:00 0.7 12 Oeste 22 Noroeste 0 -- -- 100
2019-04-03 04:00:00 0.9 9 Oeste 20 Oeste 0 -- -- 99
2019-04-03 03:00:00 1.1 9 Noroeste 17 Noroeste 0 -- -- 98
2019-04-03 02:00:00 1.4 8 Noroeste 23 Noroeste 0 -- -- 97
2019-04-03 01:00:00 1.7 11 Noroeste 24 Oeste 0 -- -- 98
2019-04-03 00:00:00 2.2 12 Noroeste 23 Noroeste 0 -- -- 97
2019-04-02 23:00:00 3 10 Oeste 19 Noroeste 0 -- -- 96
2019-04-02 22:00:00 3.8 6 Noroeste 17 Noroeste 0 -- -- 95
2019-04-02 21:00:00 4.8 6 Noroeste 20 Noroeste 0 -- -- 91
2019-04-02 20:00:00 5.9 12 Noroeste 23 Noroeste 0 -- -- 80
2019-04-02 19:00:00 7 8 Noroeste 23 Noroeste 0 -- -- 81
2019-04-02 18:00:00 8.4 9 Noroeste 26 Noroeste 0 -- -- 77
2019-04-02 17:00:00 9.6 8 Oeste 24 Noroeste 0 -- -- 68
2019-04-02 16:00:00 9.5 9 Oeste 21 Oeste 0 -- -- 65
2019-04-02 15:00:00 8.3 10 Oeste 19 Noroeste 0 -- -- 72
2019-04-02 14:00:00 8.1 6 Noroeste 14 Nordeste 0 -- -- 75
2019-04-02 13:00:00 6.4 5 Norte 12 Norte 0 -- -- 82
2019-04-02 12:00:00 5 4 Norte 12 Nordeste 0 -- -- 89
2019-04-02 11:00:00 4.6 5 Nordeste 15 Nordeste 0 -- -- 97
2019-04-02 10:00:00 3.7 5 Nordeste 14 Nordeste 0 -- -- 99
2019-04-02 09:00:00 2.8 4 Nordeste 15 Nordeste 0 -- -- 99
2019-04-02 08:00:00 2.3 7 Noroeste 15 Oeste 0 -- -- 96
2019-04-02 07:00:00 3.9 5 Noroeste 17 Nordeste 0 -- -- 81
2019-04-02 06:00:00 4.3 7 Nordeste 15 Este 0 -- -- 79
2019-04-02 05:00:00 4.1 5 Este 14 Nordeste 0 -- -- 79
2019-04-02 04:00:00 4.6 7 Oeste 15 Noroeste 0 -- -- 77
2019-04-02 03:00:00 5.1 5 Nordeste 15 Nordeste 0 -- -- 73
2019-04-02 02:00:00 5.7 6 Nordeste 17 Nordeste 0 -- -- 71
2019-04-02 01:00:00 6.2 6 Nordeste 15 Este 0 -- -- 69
2019-04-02 00:00:00 6.6 7 Nordeste 19 Nordeste 0 -- -- 67
2019-04-01 23:00:00 6.8 7 Nordeste 20 Norte 0 -- -- 65
2019-04-01 22:00:00 7.4 7 Nordeste 15 Nordeste 0 -- -- 66
2019-04-01 21:00:00 8.8 6 Nordeste 19 Norte 0 -- -- 66
2019-04-01 20:00:00 10.7 6 Nordeste 18 Noroeste 0 -- -- 58
2019-04-01 19:00:00 12.7 6 Nordeste 21 Noroeste 0 -- -- 53
2019-04-01 18:00:00 14.5 10 Noroeste 23 Norte 0 -- -- 47
2019-04-01 17:00:00 14.1 6 Nordeste 16 Noroeste 0 -- -- 37
2019-04-01 16:00:00 15 8 Oeste 21 Oeste 0 -- -- 41
2019-04-01 15:00:00 14.1 7 Nordeste 19 Norte 0 -- -- 39
2019-04-01 14:00:00 12.9 5 Noroeste 18 Nordeste 0 -- -- 46
2019-04-01 13:00:00 13.3 6 Este 13 Nordeste 0 -- -- 53
2019-04-01 12:00:00 12.2 6 Este 13 Este 0 -- -- 52
2019-04-01 11:00:00 10.6 5 Este 12 Este 0 -- -- 61
2019-04-01 10:00:00 9 6 Este 16 Sudeste 0 -- -- 67
2019-04-01 09:00:00 8.4 8 Sudeste 23 Sudeste 0 -- -- 65
2019-04-01 08:00:00 7.4 14 Sudeste 21 Sudeste 0 -- -- 67
2019-04-01 07:00:00 7.2 13 Sudeste 23 Sudeste 0 -- -- 69
2019-04-01 06:00:00 7.2 12 Sudeste 27 Sudeste 0 -- -- 68
2019-04-01 05:00:00 7.1 11 Este 23 Sudeste 0 -- -- 67
2019-04-01 04:00:00 7.2 12 Este 23 Este 0 -- -- 72
2019-04-01 03:00:00 8 11 Este 24 Sudeste 0 -- -- 66
2019-04-01 02:00:00 6.4 6 Este 10 Este 0 -- -- 80
2019-04-01 01:00:00 7.2 4 Este 9 Sudeste 0 -- -- 79
2019-04-01 00:00:00 8.4 5 Nordeste 15 Oeste 0 -- -- 76
2019-03-31 23:00:00 8 7 Oeste 19 Oeste 0 -- -- 83
2019-03-31 22:00:00 8.7 15 Oeste 22 Oeste 0 -- -- 78
2019-03-31 21:00:00 10.2 10 Oeste 18 Nordeste 0 -- -- 62
2019-03-31 20:00:00 9.9 6 Este 35 Este 0 -- -- 60
2019-03-31 19:00:00 13.3 10 Nordeste 24 Nordeste 0 -- -- 55
2019-03-31 18:00:00 14.4 5 Nordeste 17 Nordeste 0 -- -- 37
2019-03-31 17:00:00 16.1 6 Este 24 Este 0 -- -- 35
2019-03-31 16:00:00 16.5 10 Este 25 Este 0 -- -- 36
2019-03-31 15:00:00 14.3 8 Nordeste 18 Nordeste 0 -- -- 40
2019-03-31 14:00:00 13 6 Norte 20 Este 0 -- -- 42
2019-03-31 13:00:00 15.5 6 Este 16 Este 0 -- -- 41
2019-03-31 12:00:00 14.1 6 Este 23 Sudeste 0 -- -- 46
2019-03-31 11:00:00 11.8 10 Este 26 Sudeste 0 -- -- 48
2019-03-31 10:00:00 9.5 11 Sudeste 26 Sudeste 0 -- -- 49
2019-03-31 09:00:00 8.4 14 Sudeste 30 Sudeste 0 -- -- 53
2019-03-31 08:00:00 7.8 14 Sudeste 26 Este 0 -- -- 58
2019-03-31 07:00:00 8.3 12 Sudeste 25 Sudeste 0 -- -- 59
2019-03-31 06:00:00 8.7 14 Sudeste 23 Sudeste 0 -- -- 58
2019-03-31 05:00:00 8.8 11 Sudeste 17 Sudeste 0 -- -- 58
2019-03-31 03:00:00 8.3 10 Sudeste 13 Sudeste 0 -- -- 59
2019-03-31 01:00:00 8.3 5 Este 10 Este 0 -- -- 65
2019-03-31 00:00:00 8.8 3 Este 10 Sudeste 0 -- -- 62
2019-03-30 23:00:00 9.4 0 Calma 5 Sudeste 0 -- -- 62
2019-03-30 22:00:00 9.8 3 Noroeste 6 Oeste 0 -- -- 58
2019-03-30 21:00:00 10.4 5 Sur 15 Sur 0 -- -- 55
2019-03-30 20:00:00 10.8 5 Sudeste 9 Sur 0 -- -- 56
2019-03-30 19:00:00 12 0 Calma 10 Este 0 -- -- 53
2019-03-30 18:00:00 13 4 Este 15 Este 0 -- -- 48
2019-03-30 17:00:00 13.4 7 Este 21 Este 0 -- -- 48
2019-03-30 16:00:00 14.2 6 Este 16 Nordeste 0 -- -- 43
2019-03-30 15:00:00 14.2 7 Este 14 Sudeste 0 -- -- 43
2019-03-30 14:00:00 13.1 5 Oeste 17 Noroeste 0 -- -- 40
2019-03-30 13:00:00 12.9 5 Noroeste 16 Oeste 0 -- -- 43
2019-03-30 12:00:00 11.9 6 Oeste 15 Oeste 0 -- -- 51
2019-03-30 11:00:00 12.8 3 Oeste 13 Noroeste 0 -- -- 47
2019-03-30 10:00:00 11.3 4 Sudoeste 12 Sur 0 -- -- 51
2019-03-30 09:00:00 10.1 4 Sur 12 Sur 0 -- -- 60
2019-03-30 08:00:00 8.4 5 Sudoeste 12 Sudoeste 0 -- -- 68
2019-03-30 07:00:00 7.7 5 Sudoeste 9 Sudoeste 0 -- -- 64
2019-03-30 06:00:00 7.3 0 Calma 8 Sudoeste 0 -- -- 64
2019-03-30 05:00:00 8 6 Sudoeste 9 Sudoeste 0 -- -- 65
2019-03-30 04:00:00 7.9 5 Sudoeste 10 Oeste 0 -- -- 67
2019-03-30 03:00:00 7.8 7 Sudoeste 9 Sudoeste 0 -- -- 73
2019-03-30 02:00:00 7.4 4 Sudoeste 6 Sudoeste 0 -- -- 73
2019-03-30 01:00:00 7.8 0 Calma 6 Noroeste 0 -- -- 70
2019-03-30 00:00:00 8.6 4 Noroeste 6 Noroeste 0 -- -- 68
2019-03-29 23:00:00 9.3 2 Norte 8 Noroeste 0 -- -- 70
2019-03-29 22:00:00 9.8 4 Noroeste 17 Noroeste 0 -- -- 64
2019-03-29 21:00:00 10.6 11 Noroeste 18 Norte 0 -- -- 60
2019-03-29 20:00:00 11.7 9 Noroeste 17 Noroeste 0 -- -- 58
2019-03-29 19:00:00 14.3 8 Oeste 18 Oeste 0 -- -- 39
2019-03-29 18:00:00 15.4 11 Oeste 24 Oeste 0 -- -- 38
2019-03-29 17:00:00 15.6 12 Oeste 26 Oeste 0 -- -- 37
2019-03-29 16:00:00 15.5 12 Oeste 26 Oeste 0 -- -- 36
2019-03-29 15:00:00 14.9 12 Oeste 27 Sudoeste 0 -- -- 36
2019-03-29 14:00:00 14.3 11 Oeste 22 Noroeste 0 -- -- 38
2019-03-29 13:00:00 13.9 11 Oeste 18 Oeste 0 -- -- 45
2019-03-29 12:00:00 14.5 3 Este 10 Noroeste 0 -- -- 42
2019-03-29 11:00:00 13.4 3 Este 21 Sudeste 0 -- -- 45
2019-03-29 10:00:00 12 9 Sudeste 22 Sudeste 0 -- -- 42
2019-03-29 09:00:00 10.3 10 Sudeste 27 Sudeste 0 -- -- 41
2019-03-29 08:00:00 8.6 13 Sudeste 30 Sudeste 0 -- -- 45
2019-03-29 07:00:00 8.3 16 Sudeste 26 Sudeste 0 -- -- 44
2019-03-29 06:00:00 8.5 16 Sudeste 26 Sudeste 0 -- -- 43
2019-03-29 05:00:00 7.9 13 Sudeste 24 Sudeste 0 -- -- 48
2019-03-29 04:00:00 8.1 9 Este 22 Sudeste 0 -- -- 50
2019-03-29 03:00:00 8.8 13 Este 28 Sudeste 0 -- -- 49
2019-03-29 02:00:00 9.5 16 Sudeste 28 Sudeste 0 -- -- 44
2019-03-29 01:00:00 9.8 15 Sudeste 26 Sudeste 0 -- -- 46
2019-03-29 00:00:00 9.6 13 Este 28 Este 0 -- -- 52
2019-03-28 23:00:00 9.1 14 Sudeste 23 Sudeste 0 -- -- 60
2019-03-28 22:00:00 8 4 Este 14 Este 0 -- -- 67
2019-03-28 21:00:00 9.3 6 Este 14 Este 0 -- -- 63
2019-03-28 20:00:00 10.8 6 Nordeste 14 Nordeste 0 -- -- 57
2019-03-28 19:00:00 12.6 7 Nordeste 19 Norte 0 -- -- 51
2019-03-28 18:00:00 14.5 6 Nordeste 21 Nordeste 0 -- -- 42
2019-03-28 17:00:00 15.9 7 Nordeste 17 Nordeste 0 -- -- 39
2019-03-28 16:00:00 17 5 Este 16 Este 0 -- -- 32
2019-03-28 15:00:00 17 6 Este 14 Sudeste 0 -- -- 33
2019-03-28 14:00:00 16.4 5 Este 13 Este 0 -- -- 34
2019-03-28 13:00:00 15 5 Este 12 Este 0 -- -- 40
2019-03-28 12:00:00 13.7 6 Este 12 Este 0 -- -- 44
2019-03-28 11:00:00 11.6 5 Este 12 Este 0 -- -- 42
2019-03-28 10:00:00 9.8 6 Este 12 Este 0 -- -- 45
2019-03-28 09:00:00 8.3 6 Este 12 Este 0 -- -- 48
2019-03-28 08:00:00 6.5 5 Este 10 Sudeste 0 -- -- 55
2019-03-28 07:00:00 4.9 4 Este 9 Este 0 -- -- 54
2019-03-28 06:00:00 6 4 Este 13 Nordeste 0 -- -- 53
2019-03-28 05:00:00 4.5 4 Este 8 Sudeste 0 -- -- 60
2019-03-28 04:00:00 5 5 Este 12 Este 0 -- -- 57
2019-03-28 03:00:00 4.8 5 Este 17 Este 0 -- -- 64
2019-03-28 02:00:00 5.3 6 Este 19 Nordeste 0 -- -- 66
2019-03-28 01:00:00 5.1 5 Este 18 Sudeste 0 -- -- 68
2019-03-28 00:00:00 5.9 6 Este 19 Este 0 -- -- 67
2019-03-27 23:00:00 6.7 7 Este 17 Nordeste 0 -- -- 65
2019-03-27 22:00:00 7.4 6 Este 16 Este 0 -- -- 64
2019-03-27 21:00:00 8.4 8 Este 25 Nordeste 0 -- -- 58
2019-03-27 20:00:00 9.7 8 Nordeste 18 Nordeste 0 -- -- 49
2019-03-27 19:00:00 11.6 8 Nordeste 23 Nordeste 0 -- -- 42
2019-03-27 18:00:00 14 8 Nordeste 23 Norte 0 -- -- 41
2019-03-27 17:00:00 15.3 9 Nordeste 21 Norte 0 -- -- 33
2019-03-27 16:00:00 15.8 10 Nordeste 22 Norte 0 -- -- 33
2019-03-27 15:00:00 16.6 7 Nordeste 20 Norte 0 -- -- 33
2019-03-27 14:00:00 16.4 6 Nordeste 15 Norte 0 -- -- 35
2019-03-27 13:00:00 15.6 4 Este 12 Este 0 -- -- 35
2019-03-27 12:00:00 13.7 5 Este 14 Este 0 -- -- 30
2019-03-27 11:00:00 11.7 7 Este 30 Sudeste 0 -- -- 31
2019-03-27 10:00:00 9.9 12 Este 29 Sudeste 0 -- -- 37
2019-03-27 09:00:00 7.2 10 Este 22 Sudeste 0 -- -- 44
2019-03-27 08:00:00 3.7 8 Este 17 Este 0 -- -- 60
2019-03-27 07:00:00 3 8 Este 16 Este 0 -- -- 55
2019-03-27 06:00:00 4.6 10 Este 22 Este 0 -- -- 39
2019-03-27 05:00:00 2.4 6 Este 21 Nordeste 0 -- -- 70
2019-03-27 04:00:00 3 8 Este 21 Este 0 -- -- 74
2019-03-27 03:00:00 4 12 Este 35 Este 0 -- -- 71
2019-03-27 02:00:00 5 13 Este 32 Este 0 -- -- 57
2019-03-27 01:00:00 4.2 11 Este 21 Este 0 -- -- 79
2019-03-27 00:00:00 4.5 8 Este 15 Nordeste 0 -- -- 79
2019-03-26 23:00:00 5 6 Este 13 Nordeste 0 -- -- 79
2019-03-26 22:00:00 5.7 6 Este 15 Este 0 -- -- 76
2019-03-26 21:00:00 6.9 6 Este 15 Este 0 -- -- 71
2019-03-26 20:00:00 8.1 6 Nordeste 20 Este 0 -- -- 68
2019-03-26 19:00:00 10.1 9 Nordeste 22 Norte 0 -- -- 60
2019-03-26 18:00:00 12.9 6 Nordeste 19 Nordeste 0 -- -- 47
2019-03-26 17:00:00 14.8 6 Este 18 Nordeste 0 -- -- 42
2019-03-26 16:00:00 15.5 5 Este 18 Este 0 -- -- 38
2019-03-26 15:00:00 15.4 6 Este 18 Este 0 -- -- 40
2019-03-26 14:00:00 14.6 7 Este 15 Sudeste 0 -- -- 42
2019-03-26 13:00:00 13.5 6 Este 17 Este 0 -- -- 47
2019-03-26 12:00:00 11.7 6 Este 21 Este 0 -- -- 54
2019-03-26 11:00:00 8.8 8 Este 21 Este 0 -- -- 64
2019-03-26 10:00:00 5.7 10 Este 26 Este 0 -- -- 72
2019-03-26 09:00:00 3.7 11 Este 28 Este 0 -- -- 80
2019-03-26 08:00:00 1.4 11 Este 28 Nordeste 0 -- -- 90
2019-03-26 07:00:00 0.2 11 Este 21 Sudeste 0 -- -- 94
2019-03-26 06:00:00 0.4 10 Este 26 Nordeste 0 -- -- 94
2019-03-26 05:00:00 0.8 12 Este 32 Este 0 -- -- 93
2019-03-26 04:00:00 1.1 10 Este 24 Este 0 -- -- 91
2019-03-26 03:00:00 1.8 10 Este 28 Este 0 -- -- 86
2019-03-26 02:00:00 2.3 9 Este 21 Este 0 -- -- 85
2019-03-26 01:00:00 2.9 8 Este 17 Este 0 -- -- 85
2019-03-26 00:00:00 3.7 8 Este 20 Sudeste 0 -- -- 83
2019-03-25 23:00:00 4.5 9 Este 27 Este 0 -- -- 83
2019-03-25 22:00:00 5.1 9 Este 25 Este 0 -- -- 83
2019-03-25 21:00:00 5.9 9 Este 25 Este 0 -- -- 82
2019-03-25 20:00:00 7.3 9 Este 30 Este 0 -- -- 79
2019-03-25 19:00:00 8.7 9 Nordeste 24 Este 0 -- -- 72
2019-03-25 18:00:00 11 11 Nordeste 26 Norte 0 -- -- 63
2019-03-25 17:00:00 12.6 8 Nordeste 26 Este 0 -- -- 55
2019-03-25 16:00:00 13.6 11 Nordeste 19 Nordeste 0 -- -- 54
2019-03-25 15:00:00 13.8 8 Este 22 Este 0 -- -- 52
2019-03-25 14:00:00 13.9 7 Este 23 Este 0 -- -- 46
2019-03-25 13:00:00 12.8 8 Este 21 Nordeste 0 -- -- 54
2019-03-25 12:00:00 11 9 Este 19 Este 0 -- -- 64
2019-03-25 11:00:00 8.5 8 Este 22 Este 0 -- -- 76
2019-03-25 10:00:00 6.8 10 Este 22 Este 0 -- -- 79
2019-03-25 09:00:00 5.4 8 Este 18 Nordeste 0 -- -- 86
2019-03-25 08:00:00 3.3 7 Este 17 Este 0 -- -- 97
2019-03-25 07:00:00 2.9 7 Este 17 Este 0 -- -- 95
2019-03-25 06:00:00 3.5 8 Este 19 Este 0 -- -- 90
2019-03-25 05:00:00 4.1 6 Este 21 Este 0 -- -- 85
2019-03-25 04:00:00 5 8 Este 18 Sudeste 0 -- -- 78
2019-03-25 03:00:00 5.4 6 Este 19 Nordeste 0 -- -- 75
2019-03-25 02:00:00 5.1 6 Este 16 Este 0 -- -- 77
2019-03-25 01:00:00 5.1 8 Este 15 Este 0 -- -- 79
2019-03-25 00:00:00 5.5 9 Este 21 Este 0 -- -- 78